Hawarden, United Kingdom

2:51 PM BST on August 20, 2014 (GMT +0100)
Hawarden | Change Station
CLOSE
Current Station
Airport
Location: Hawarden,
Elevation: 33 ft
Nearby Weather Stations

Elev 33 ft 53.17 °N, 2.99 °W | Updated 31 minutes ago

Scattered Clouds
Scattered Clouds
55 °F
Feels Like 55 °F
N
9
Wind Variable Wind from NW

Today
High -- | Low -- °F
--% Chance of Precip.
Yesterday
High -- | Low -- °F
Precip. -- in
6:00 AM 8:28 PM
Waning Crescent, 21% visible
Pressure 30.06 in
Visibility 6.2 miles
Clouds Few 1800 ft
Scattered Clouds 3500 ft
Dew Point 50 °F
Humidity 82%
Rainfall 0.00 in
Snow Depth Not available.
UV 5 out of 12
Pollen Not available.
Air Quality Not available.
Flu Activity Not available.
METAR EGNR 201320Z 31008KT 270V330 9999 VCSH FEW018 SCT035 13/10 Q1018

More Conditions Fewer Conditions

Pressure 30.06 in
Visibility 6.2 miles
Clouds Few 1800 ft
Scattered Clouds 3500 ft
Dew Point 50 °F
Humidity 82%
Rainfall 0.00 in
Snow Depth Not available.
UV 5 out of 12
Pollen Not available.
Air Quality Not available.
Flu Activity Not available.
METAR EGNR 201320Z 31008KT 270V330 9999 VCSH FEW018 SCT035 13/10 Q1018

More Conditions Fewer Conditions

10-Day Weather Forecast

Almanac

Astronomy

Aug. 20, 2014 Rise Set
Actual Time 6:00 AM BST 8:28 PM BST
Civil Twilight 5:22 AM BST 9:07 PM BST
Nautical Twilight 4:32 AM BST 9:55 PM BST
Astronomical Twilight 3:33 AM BST 10:54 PM BST
Moon 1:13 AM BST 5:17 PM BST
Length of Visible Light 15h 44m
Length of Day
14h 28m
Tomorrow will be 3m 56s shorter.
Waning Crescent, 21% of the Moon is Illuminated
Today
Waning Crescent
Aug 25
New
Sep 2
First Quarter
Sep 8
Full
Sep 15
Last Quarter

Yesterday's Extremes

Country Highs Country Lows

Community

WunderPhotos

Upload Photos

1,745,630 photos uploaded!

WunderBlogs® & News

By Dr. Jeff Masters
Director of Meteorology, Weather Underground
By Kari Strenfel
Meteorologist, Weather Underground
By Christopher C. Burt
Weather Historian, Weather Underground
August 20, 2014
August 20, 2014
August 20, 2014

Nearby

Snow Depth

Not available.

Earthquake Activity

City Distance Mag. Time & Date
No recent earthquake activity has been reported nearby.
Minimum magnitude displayed is 2.5.

Coastal Water Temperatures

Place Temperature
No Stations Reporting

Nearby Weather Stations